Time;durP1;ratioP1;P1;durP2;ratioP2;P2;SDS_P1;SDS_P2;PMS_P1;PMS_P2;Temp;Humidity;BMP_temperature;BMP_pressure;BME280_temperature;BME280_humidity;BME280_pressure;Samples;Min_cycle;Max_cycle;Signal;HPM_P1;HPM_P2
2021/11/15 00:02:24;;;;;;;;;;;;;;;6.43;78.55;101583.89;1684965;85;20171;-61
2021/11/15 00:04:53;;;;;;;;;;;;;;;6.45;78.59;101587.83;1684966;85;20167;-61
2021/11/15 00:07:21;;;;;;;;;;;;;;;6.46;78.63;101582.23;1685077;84;20202;-61
2021/11/15 00:09:49;;;;;;;;;;;;;;;6.45;78.58;101586.47;1684912;84;20484;-64
2021/11/15 00:12:18;;;;;;;;;;;;;;;6.44;78.63;101574.72;1685274;85;20543;-62
2021/11/15 00:14:47;;;;;;;;;;;;;;;6.43;78.55;101572.14;1685175;85;20230;-62
2021/11/15 00:17:16;;;;;;;;;;;;;;;6.41;78.58;101577.72;1685073;85;20268;-61
2021/11/15 00:19:46;;;;;;;;;;;;;;;6.38;78.52;101575.28;1684960;85;20179;-62
2021/11/15 00:22:17;;;;;;;;;;;;;;;6.38;78.58;101589.40;1684899;84;20261;-62
2021/11/15 00:24:46;;;;;;;;;;;;;;;6.39;78.63;101586.53;1684914;85;20175;-60
2021/11/15 00:27:14;;;;;;;;;;;;;;;6.41;78.69;101589.97;1684906;85;20259;-63
2021/11/15 00:29:43;;;;;;;;;;;;;;;6.43;78.70;101578.94;1685184;85;20465;-60
2021/11/15 00:32:22;;;;;;;;;;;;;;;6.42;78.69;101582.16;1685233;84;20178;-62
2021/11/15 00:34:51;;;;;;;;;;;;;;;6.40;78.67;101588.25;1685008;85;20571;-73
2021/11/15 00:37:19;;;;;;;;;;;;;;;6.39;78.73;101581.09;1685256;85;20457;-66
2021/11/15 00:39:49;;;;;;;;;;;;;;;6.39;78.79;101585.17;1684940;85;20154;-61
2021/11/15 00:42:19;;;;;;;;;;;;;;;6.40;78.82;101595.06;1684846;85;20210;-62
2021/11/15 00:44:47;;;;;;;;;;;;;;;6.43;78.84;101595.28;1684875;84;20215;-62
2021/11/15 00:47:16;;;;;;;;;;;;;;;6.45;78.83;101576.94;1684995;84;20159;-60
2021/11/15 00:49:45;;;;;;;;;;;;;;;6.46;78.88;101572.71;1685172;85;20263;-60
2021/11/15 00:52:13;;;;;;;;;;;;;;;6.47;78.84;101575.80;1684999;84;20223;-60
2021/11/15 00:54:42;;;;;;;;;;;;;;;6.47;78.84;101585.32;1684980;85;20222;-61
2021/11/15 00:57:10;;;;;;;;;;;;;;;6.47;78.81;101587.19;1684892;84;20162;-61
2021/11/15 00:59:40;;;;;;;;;;;;;;;6.47;78.85;101592.13;1685240;85;20186;-61
2021/11/15 01:02:08;;;;;;;;;;;;;;;6.47;78.87;101588.05;1684788;85;20222;-60
2021/11/15 01:04:46;;;;;;;;;;;;;;;6.51;78.83;101594.09;1684947;85;20544;-61
2021/11/15 01:07:15;;;;;;;;;;;;;;;6.51;78.76;101590.02;1685033;84;20198;-61
2021/11/15 01:09:43;;;;;;;;;;;;;;;6.52;78.70;101603.48;1685123;84;20516;-61
2021/11/15 01:12:12;;;;;;;;;;;;;;;6.50;78.73;101605.95;1684912;85;20158;-61
2021/11/15 01:14:41;;;;;;;;;;;;;;;6.49;78.83;101605.60;1684934;85;20242;-61
2021/11/15 01:17:09;;;;;;;;;;;;;;;6.51;78.92;101607.21;1684891;85;20221;-61
2021/11/15 01:19:37;;;;;;;;;;;;;;;6.51;78.95;101614.02;1685049;85;20531;-62
2021/11/15 01:22:06;;;;;;;;;;;;;;;6.49;79.03;101613.27;1685141;84;20251;-60
2021/11/15 01:24:35;;;;;;;;;;;;;;;6.52;79.08;101625.77;1684913;84;20223;-61
2021/11/15 01:27:03;;;;;;;;;;;;;;;6.52;79.14;101633.44;1684728;84;20167;-62
2021/11/15 01:29:31;;;;;;;;;;;;;;;6.53;79.15;101622.91;1685025;84;20239;-62
2021/11/15 01:32:00;;;;;;;;;;;;;;;6.52;79.16;101614.38;1685133;85;20154;-63
2021/11/15 01:34:31;;;;;;;;;;;;;;;6.49;79.25;101619.22;1684942;85;20217;-61
2021/11/15 01:37:00;;;;;;;;;;;;;;;6.48;79.33;101629.24;1685018;85;20197;-61
2021/11/15 01:39:28;;;;;;;;;;;;;;;6.47;79.30;101624.80;1684900;84;20158;-61
2021/11/15 01:41:57;;;;;;;;;;;;;;;6.46;79.34;101623.58;1684848;85;20277;-61
2021/11/15 01:44:25;;;;;;;;;;;;;;;6.44;79.33;101615.55;1684822;85;20222;-60
2021/11/15 01:46:53;;;;;;;;;;;;;;;6.45;79.35;101620.50;1685043;85;20159;-62
2021/11/15 01:49:22;;;;;;;;;;;;;;;6.44;79.36;101614.19;1685034;84;20192;-61
2021/11/15 01:51:50;;;;;;;;;;;;;;;6.43;79.35;101607.53;1685029;85;20187;-64
2021/11/15 01:54:19;;;;;;;;;;;;;;;6.44;79.38;101610.61;1684708;85;20652;-66
2021/11/15 01:56:50;;;;;;;;;;;;;;;6.43;79.36;101616.55;1685419;85;20219;-62
2021/11/15 01:59:19;;;;;;;;;;;;;;;6.44;79.45;101618.78;1685591;85;20166;-61
2021/11/15 02:01:47;;;;;;;;;;;;;;;6.43;79.48;101617.91;1685354;85;20198;-61
2021/11/15 02:04:16;;;;;;;;;;;;;;;6.42;79.55;101610.75;1685399;85;20178;-61
2021/11/15 02:06:46;;;;;;;;;;;;;;;6.41;79.53;101598.14;1685564;84;20270;-61
2021/11/15 02:09:21;;;;;;;;;;;;;;;6.44;79.49;101606.02;1685410;85;20158;-60
2021/11/15 02:11:51;;;;;;;;;;;;;;;6.46;79.42;101615.41;1685424;84;20155;-62
2021/11/15 02:14:19;;;;;;;;;;;;;;;6.48;79.38;101603.88;1685448;84;20648;-62
2021/11/15 02:16:49;;;;;;;;;;;;;;;6.49;79.32;101610.55;1685384;85;20162;-61
2021/11/15 02:19:17;;;;;;;;;;;;;;;6.49;79.29;101607.82;1685523;85;20456;-62
2021/11/15 02:21:47;;;;;;;;;;;;;;;6.49;79.22;101607.82;1685407;85;20231;-60
2021/11/15 02:24:17;;;;;;;;;;;;;;;6.47;79.19;101609.83;1685689;84;20194;-61
2021/11/15 02:26:48;;;;;;;;;;;;;;;6.48;79.22;101612.05;1685608;85;20484;-61
2021/11/15 02:29:18;;;;;;;;;;;;;;;6.47;79.18;101612.55;1685356;85;20166;-60
2021/11/15 02:31:46;;;;;;;;;;;;;;;6.47;79.12;101613.05;1685405;85;20186;-60
2021/11/15 02:34:15;;;;;;;;;;;;;;;6.47;79.10;101623.44;1685761;85;20151;-60
2021/11/15 02:36:44;;;;;;;;;;;;;;;6.46;79.07;101627.16;1685387;85;20218;-61
2021/11/15 02:39:12;;;;;;;;;;;;;;;6.46;79.04;101637.20;1685635;84;20453;-61
2021/11/15 02:41:40;;;;;;;;;;;;;;;6.46;79.13;101635.83;1685457;85;20492;-60
2021/11/15 02:44:09;;;;;;;;;;;;;;;6.46;79.11;101645.36;1685418;85;20370;-61
2021/11/15 02:46:39;;;;;;;;;;;;;;;6.46;79.09;101650.30;1685320;85;20162;-63
2021/11/15 02:49:07;;;;;;;;;;;;;;;6.45;79.09;101655.39;1685731;85;20509;-61
2021/11/15 02:51:36;;;;;;;;;;;;;;;6.47;79.05;101665.64;1685777;85;20193;-62
2021/11/15 02:54:04;;;;;;;;;;;;;;;6.46;79.02;101657.11;1685290;85;20266;-62
2021/11/15 02:56:35;;;;;;;;;;;;;;;6.47;78.97;101663.42;1685193;85;20558;-64
2021/11/15 02:59:03;;;;;;;;;;;;;;;6.48;78.98;101666.50;1685514;84;20510;-60
2021/11/15 03:01:31;;;;;;;;;;;;;;;6.47;78.91;101671.09;1685453;85;20166;-60
2021/11/15 03:04:00;;;;;;;;;;;;;;;6.48;78.88;101668.72;1685328;84;20162;-64
2021/11/15 03:06:28;;;;;;;;;;;;;;;6.46;78.84;101665.28;1685645;84;20198;-60
2021/11/15 03:08:58;;;;;;;;;;;;;;;6.41;78.84;101673.01;1685309;84;20146;-64
2021/11/15 03:11:26;;;;;;;;;;;;;;;6.35;78.94;101673.06;1685372;85;20190;-61
2021/11/15 03:13:55;;;;;;;;;;;;;;;6.33;79.06;101674.20;1685434;85;20198;-61
2021/11/15 03:16:23;;;;;;;;;;;;;;;6.32;79.16;101675.20;1685234;85;20226;-59
2021/11/15 03:18:51;;;;;;;;;;;;;;;6.30;79.21;101681.29;1685653;85;20163;-61
2021/11/15 03:21:21;;;;;;;;;;;;;;;6.27;79.33;101676.12;1685596;85;20170;-61
2021/11/15 03:23:52;;;;;;;;;;;;;;;6.27;79.42;101686.52;1685352;84;20217;-61
2021/11/15 03:26:20;;;;;;;;;;;;;;;6.26;79.58;101683.42;1685414;85;20214;-61
2021/11/15 03:28:49;;;;;;;;;;;;;;;6.21;79.78;101682.98;1685364;85;20533;-59
2021/11/15 03:31:24;;;;;;;;;;;;;;;6.20;79.87;101689.42;1685451;85;20520;-60
2021/11/15 03:33:54;;;;;;;;;;;;;;;6.16;80.00;101695.28;1685441;85;20182;-62
2021/11/15 03:36:22;;;;;;;;;;;;;;;6.12;80.16;101697.91;1685415;84;20278;-61
2021/11/15 03:38:51;;;;;;;;;;;;;;;6.11;80.20;101694.33;1685430;85;20218;-67
2021/11/15 03:41:19;;;;;;;;;;;;;;;6.09;80.16;101700.41;1685488;85;20158;-61
2021/11/15 03:43:48;;;;;;;;;;;;;;;6.07;80.19;101703.77;1685629;84;20154;-60
2021/11/15 03:46:17;;;;;;;;;;;;;;;6.07;80.26;101704.27;1685360;85;20163;-60
2021/11/15 03:48:45;;;;;;;;;;;;;;;6.08;80.21;101708.70;1685355;85;20254;-61
2021/11/15 03:51:14;;;;;;;;;;;;;;;6.06;80.17;101705.27;1685637;85;20213;-62
2021/11/15 03:53:43;;;;;;;;;;;;;;;6.04;80.18;101710.84;1685507;84;20178;-61
2021/11/15 03:56:13;;;;;;;;;;;;;;;6.02;80.15;101710.98;1688448;85;20199;-60
2021/11/15 03:58:42;;;;;;;;;;;;;;;6.01;80.09;101707.89;1693316;84;20226;-60
2021/11/15 04:01:11;;;;;;;;;;;;;;;6.00;80.01;101714.83;1692966;85;20170;-61
2021/11/15 04:03:41;;;;;;;;;;;;;;;5.96;79.97;101718.32;1693118;84;20170;-61
2021/11/15 04:06:21;;;;;;;;;;;;;;;5.98;79.95;101732.66;1693059;85;20162;-60
2021/11/15 04:08:44;;;;;;;;;;;;;;;5.97;79.87;101732.78;1692915;85;20154;-61
2021/11/15 04:11:12;;;;;;;;;;;;;;;5.94;79.92;101740.72;1693036;85;20194;-61
2021/11/15 04:13:42;;;;;;;;;;;;;;;5.92;80.00;101741.35;1693096;84;20195;-59
2021/11/15 04:16:12;;;;;;;;;;;;;;;5.90;80.03;101743.84;1693357;84;20182;-61
2021/11/15 04:18:44;;;;;;;;;;;;;;;5.90;80.09;101742.48;1693149;85;20202;-62
2021/11/15 04:21:12;;;;;;;;;;;;;;;5.88;80.12;101741.23;1693080;84;20484;-60
2021/11/15 04:23:41;;;;;;;;;;;;;;;5.89;80.21;101747.06;1693086;85;20170;-60
2021/11/15 04:26:09;;;;;;;;;;;;;;;5.92;80.13;101752.73;1692987;84;20197;-61
2021/11/15 04:28:38;;;;;;;;;;;;;;;5.91;80.05;101747.80;1692910;85;20170;-61
2021/11/15 04:31:06;;;;;;;;;;;;;;;5.93;80.09;101747.66;1692878;84;20202;-62
2021/11/15 04:33:36;;;;;;;;;;;;;;;5.93;80.15;101749.02;1693026;85;20254;-60
2021/11/15 04:36:06;;;;;;;;;;;;;;;5.95;80.17;101759.27;1693141;85;20229;-62
2021/11/15 04:38:34;;;;;;;;;;;;;;;5.96;80.17;101760.48;1692977;85;20225;-62
2021/11/15 04:41:03;;;;;;;;;;;;;;;5.97;80.16;101762.22;1692807;85;20205;-62
2021/11/15 04:43:31;;;;;;;;;;;;;;;5.96;80.11;101772.73;1693238;85;20489;-61
2021/11/15 04:46:00;;;;;;;;;;;;;;;5.96;80.15;101778.17;1693100;85;20159;-61
2021/11/15 04:48:28;;;;;;;;;;;;;;;5.98;80.12;101775.32;1693055;84;20154;-64
2021/11/15 04:50:56;;;;;;;;;;;;;;;5.97;80.06;101763.58;1693060;85;20514;-60
2021/11/15 04:53:25;;;;;;;;;;;;;;;5.97;80.15;101762.72;1693232;84;20538;-62
2021/11/15 04:55:53;;;;;;;;;;;;;;;5.97;80.20;101769.02;1692000;84;20366;-60
2021/11/15 04:58:22;;;;;;;;;;;;;;;5.98;80.22;101778.91;1684803;84;20226;-61
2021/11/15 05:00:51;;;;;;;;;;;;;;;5.99;80.23;101784.70;1684915;85;20536;-71
2021/11/15 05:03:21;;;;;;;;;;;;;;;5.98;80.21;101782.13;1684845;84;20218;-61
2021/11/15 05:05:49;;;;;;;;;;;;;;;5.96;80.25;101787.70;1684798;85;20154;-61
2021/11/15 05:08:18;;;;;;;;;;;;;;;6.00;80.26;101799.17;1684912;85;20504;-61
2021/11/15 05:10:46;;;;;;;;;;;;;;;5.98;80.20;101797.09;1685075;84;20197;-62
2021/11/15 05:13:14;;;;;;;;;;;;;;;6.00;80.22;101797.81;1684768;85;20228;-64
2021/11/15 05:15:42;;;;;;;;;;;;;;;5.98;80.20;101810.19;1684875;84;20565;-61
2021/11/15 05:18:11;;;;;;;;;;;;;;;5.98;80.26;101813.41;1684851;85;20473;-62
2021/11/15 05:20:40;;;;;;;;;;;;;;;5.98;80.24;101816.13;1685122;84;20465;-60
2021/11/15 05:23:09;;;;;;;;;;;;;;;5.98;80.25;101819.72;1684700;85;20274;-61
2021/11/15 05:25:37;;;;;;;;;;;;;;;5.96;80.23;101827.14;1684870;85;20559;-61
2021/11/15 05:28:05;;;;;;;;;;;;;;;5.98;80.19;101821.57;1684999;84;20277;-60
2021/11/15 05:30:34;;;;;;;;;;;;;;;5.97;80.15;101833.45;1579151;91;20173;-62
2021/11/15 05:33:03;;;;;;;;;;;;;;;5.95;80.16;101825.42;1579113;91;20217;-60
2021/11/15 05:35:33;;;;;;;;;;;;;;;5.94;80.21;101837.30;1579587;89;20230;-61
2021/11/15 05:38:01;;;;;;;;;;;;;;;5.94;80.27;101841.88;1579306;91;20476;-62
2021/11/15 05:40:30;;;;;;;;;;;;;;;5.98;80.25;101848.78;1579190;91;20260;-61
2021/11/15 05:42:58;;;;;;;;;;;;;;;5.99;80.20;101855.95;1579182;91;20166;-62
2021/11/15 05:45:27;;;;;;;;;;;;;;;6.01;80.07;101853.45;1579055;91;20221;-61
2021/11/15 05:47:55;;;;;;;;;;;;;;;6.02;79.97;101859.27;1596850;85;20162;-60
2021/11/15 05:50:24;;;;;;;;;;;;;;;6.01;79.92;101858.04;1684816;84;20222;-62
2021/11/15 05:52:52;;;;;;;;;;;;;;;5.99;79.92;101866.83;1684911;84;20469;-63
2021/11/15 05:55:22;;;;;;;;;;;;;;;6.00;79.97;101868.05;1684899;85;20218;-62
2021/11/15 05:57:51;;;;;;;;;;;;;;;5.98;79.89;101860.52;1685156;84;20163;-62
2021/11/15 06:00:22;;;;;;;;;;;;;;;5.94;79.87;101861.78;1685381;85;20209;-61
2021/11/15 06:02:52;;;;;;;;;;;;;;;5.92;79.90;101863.77;1685383;85;20166;-70
2021/11/15 06:05:21;;;;;;;;;;;;;;;5.94;79.89;101868.58;1685635;85;20167;-62
2021/11/15 06:07:50;;;;;;;;;;;;;;;5.94;79.87;101870.44;1685289;85;20206;-61
2021/11/15 06:10:20;;;;;;;;;;;;;;;5.94;79.79;101869.95;1685281;85;20225;-60
2021/11/15 06:12:50;;;;;;;;;;;;;;;5.91;79.74;101879.73;1685334;85;20166;-62
2021/11/15 06:15:20;;;;;;;;;;;;;;;5.90;79.83;101883.44;1685311;85;20159;-60
2021/11/15 06:17:49;;;;;;;;;;;;;;;5.90;79.79;101887.53;1685382;84;20164;-62
2021/11/15 06:20:18;;;;;;;;;;;;;;;5.89;79.70;101892.59;1685201;84;20154;-62
2021/11/15 06:22:46;;;;;;;;;;;;;;;5.88;79.68;101881.82;1685268;84;20270;-62
2021/11/15 06:25:16;;;;;;;;;;;;;;;5.91;79.67;101889.75;1685480;84;20162;-62
2021/11/15 06:27:45;;;;;;;;;;;;;;;5.94;79.66;101892.20;1685327;85;20202;-60
2021/11/15 06:30:36;;;;;;;;;;;;;;;5.95;79.56;101893.44;1685592;84;20451;-69
2021/11/15 06:33:04;;;;;;;;;;;;;;;5.95;79.51;101890.72;1726023;82;20183;-64
2021/11/15 06:35:33;;;;;;;;;;;;;;;5.96;79.45;101903.82;1726081;82;20246;-62
2021/11/15 06:38:02;;;;;;;;;;;;;;;5.94;79.34;101901.73;1726098;83;20207;-63
2021/11/15 06:40:31;;;;;;;;;;;;;;;5.93;79.27;101903.59;1726057;83;20230;-62
2021/11/15 06:43:01;;;;;;;;;;;;;;;5.93;79.17;101902.72;1726307;83;20488;-62
2021/11/15 06:45:31;;;;;;;;;;;;;;;5.96;79.08;101909.27;1726162;83;20174;-61
2021/11/15 06:48:00;;;;;;;;;;;;;;;5.99;78.97;101908.50;1725931;83;20305;-62
2021/11/15 06:50:28;;;;;;;;;;;;;;;6.03;78.78;101912.69;1726073;82;20187;-64
2021/11/15 06:52:57;;;;;;;;;;;;;;;6.05;78.58;101915.28;1726063;83;20222;-62
2021/11/15 06:55:26;;;;;;;;;;;;;;;6.03;78.43;101919.49;1726073;83;20314;-63
2021/11/15 06:57:55;;;;;;;;;;;;;;;6.02;78.40;101925.06;1725940;82;20500;-62
2021/11/15 07:00:25;;;;;;;;;;;;;;;6.03;78.43;101919.98;1726040;83;20605;-63
2021/11/15 07:02:54;;;;;;;;;;;;;;;6.08;78.34;101919.59;1726041;83;20186;-64
2021/11/15 07:05:24;;;;;;;;;;;;;;;6.07;78.13;101926.03;1726127;83;20222;-63
2021/11/15 07:07:53;;;;;;;;;;;;;;;6.06;78.01;101933.83;1726220;83;20254;-61
2021/11/15 07:10:22;;;;;;;;;;;;;;;6.07;77.91;101942.36;1726323;83;20648;-61
2021/11/15 07:12:50;;;;;;;;;;;;;;;6.04;77.71;101936.19;1725954;83;20571;-66
2021/11/15 07:15:19;;;;;;;;;;;;;;;6.03;77.61;101941.26;1726086;82;20190;-61
2021/11/15 07:17:48;;;;;;;;;;;;;;;6.04;77.60;101949.79;1726144;83;20195;-63
2021/11/15 07:20:16;;;;;;;;;;;;;;;6.04;77.52;101950.28;1726239;83;20555;-64
2021/11/15 07:22:47;;;;;;;;;;;;;;;6.01;77.54;101950.05;1726088;83;20291;-63
2021/11/15 07:25:18;;;;;;;;;;;;;;;6.00;77.51;101953.77;1725966;83;20206;-65
2021/11/15 07:27:48;;;;;;;;;;;;;;;6.02;77.48;101956.36;1726133;83;20199;-65
2021/11/15 07:30:16;;;;;;;;;;;;;;;6.05;77.35;101956.09;1726013;83;20566;-63
2021/11/15 07:32:45;;;;;;;;;;;;;;;6.07;77.21;101964.12;1715909;83;20494;-63
2021/11/15 07:35:13;;;;;;;;;;;;;;;6.05;76.97;101964.26;1713754;84;20255;-62
2021/11/15 07:37:41;;;;;;;;;;;;;;;6.04;77.06;101960.67;1713732;84;20501;-64
2021/11/15 07:40:10;;;;;;;;;;;;;;;6.04;77.10;101972.91;1713718;84;20255;-62
2021/11/15 07:42:39;;;;;;;;;;;;;;;6.08;77.04;101974.88;1713944;84;20207;-64
2021/11/15 07:45:08;;;;;;;;;;;;;;;6.09;76.96;101972.52;1714220;84;20279;-63
2021/11/15 07:47:37;;;;;;;;;;;;;;;6.13;76.94;101981.30;1714071;83;20555;-63
2021/11/15 07:50:06;;;;;;;;;;;;;;;6.17;76.76;101978.67;1713720;84;20518;-63
2021/11/15 07:52:36;;;;;;;;;;;;;;;6.22;76.69;101990.03;1713608;84;20242;-62
2021/11/15 07:55:06;;;;;;;;;;;;;;;6.27;76.43;101989.14;1713627;83;20509;-63
2021/11/15 07:57:38;;;;;;;;;;;;;;;6.30;76.20;101990.25;1713688;84;20553;-63
2021/11/15 08:00:07;;;;;;;;;;;;;;;6.32;75.95;101989.12;1713764;84;20214;-64
2021/11/15 08:02:41;;;;;;;;;;;;;;;6.33;75.68;101988.12;1714104;84;20197;-63
2021/11/15 08:05:11;;;;;;;;;;;;;;;6.34;75.43;101997.16;1658831;86;20231;-62
2021/11/15 08:07:40;;;;;;;;;;;;;;;6.36;75.25;102001.97;1658755;86;20540;-63
2021/11/15 08:10:11;;;;;;;;;;;;;;;6.40;74.91;102010.24;1658785;86;20171;-67
2021/11/15 08:12:42;;;;;;;;;;;;;;;6.41;74.32;102013.33;1658926;86;20163;-62
2021/11/15 08:15:12;;;;;;;;;;;;;;;6.41;73.95;102011.97;1658539;86;20274;-64
2021/11/15 08:17:43;;;;;;;;;;;;;;;6.43;73.70;102014.06;1658871;86;20238;-63
2021/11/15 08:20:15;;;;;;;;;;;;;;;6.45;73.54;102008.48;1659181;86;20206;-64
2021/11/15 08:22:47;;;;;;;;;;;;;;;6.44;73.41;102013.06;1543910;91;20247;-62
2021/11/15 08:25:30;;;;;;;;;;;;;;;6.45;73.22;102018.02;1581260;91;20549;-63
2021/11/15 08:27:58;;;;;;;;;;;;;;;6.46;72.92;102019.25;1581055;91;20193;-63
2021/11/15 08:30:26;;;;;;;;;;;;;;;6.46;72.71;102020.61;1581154;91;20195;-63
2021/11/15 08:32:57;;;;;;;;;;;;;;;6.48;72.79;102024.06;1587027;90;20186;-63
2021/11/15 08:35:25;;;;;;;;;;;;;;;6.50;72.36;102026.66;1588750;90;20170;-63
2021/11/15 08:38:12;;;;;;;;;;;;;;;6.50;72.32;102029.38;1588775;90;20153;-63
2021/11/15 08:40:41;;;;;;;;;;;;;;;6.52;71.62;102030.14;1588661;90;20229;-62
2021/11/15 08:43:10;;;;;;;;;;;;;;;6.48;71.27;102034.95;1588868;90;20191;-66
2021/11/15 08:45:38;;;;;;;;;;;;;;;6.48;70.90;102043.63;1588841;90;20483;-62
2021/11/15 08:48:07;;;;;;;;;;;;;;;6.44;70.90;102040.30;1701682;83;20264;-62
2021/11/15 08:50:35;;;;;;;;;;;;;;;6.43;70.77;102041.79;1727634;83;20202;-63
2021/11/15 08:53:04;;;;;;;;;;;;;;;6.40;70.86;102037.47;1728119;82;20644;-62
2021/11/15 08:55:34;;;;;;;;;;;;;;;6.36;70.92;102039.59;1616702;89;20268;-62
2021/11/15 08:58:03;;;;;;;;;;;;;;;6.41;71.13;102047.37;1616461;89;20231;-63
2021/11/15 09:00:32;;;;;;;;;;;;;;;6.45;71.11;102044.75;1616613;89;20290;-62
2021/11/15 09:03:01;;;;;;;;;;;;;;;6.50;70.78;102040.27;1616622;89;20588;-62
2021/11/15 09:05:31;;;;;;;;;;;;;;;6.52;70.30;102046.48;1616714;89;20267;-61
2021/11/15 09:08:00;;;;;;;;;;;;;;;6.53;70.09;102046.85;1616300;89;20236;-62
2021/11/15 09:10:29;;;;;;;;;;;;;;;6.55;69.67;102034.83;1616587;89;20562;-62
2021/11/15 09:12:58;;;;;;;;;;;;;;;6.57;69.32;102038.78;1638406;83;20481;-62
2021/11/15 09:15:27;;;;;;;;;;;;;;;6.58;69.18;102035.92;1727556;83;20255;-63
2021/11/15 09:17:56;;;;;;;;;;;;;;;6.59;69.14;102040.37;1731160;82;20227;-62
2021/11/15 09:20:25;;;;;;;;;;;;;;;6.59;69.02;102037.66;1698562;84;20288;-61
2021/11/15 09:22:54;;;;;;;;;;;;;;;6.61;68.97;102039.75;1698458;84;20547;-64
2021/11/15 09:25:22;;;;;;;;;;;;;;;6.61;69.08;102047.06;1698825;84;20220;-61
2021/11/15 09:27:50;;;;;;;;;;;;;;;6.62;68.68;102048.78;1698790;84;20213;-68
2021/11/15 09:30:19;;;;;;;;;;;;;;;6.59;68.72;102050.41;1698494;84;20184;-68
2021/11/15 09:32:47;;;;;;;;;;;;;;;6.57;69.23;102055.12;1698600;84;20205;-69
2021/11/15 09:35:15;;;;;;;;;;;;;;;6.54;69.05;102049.44;1698804;84;20521;-67
2021/11/15 09:37:45;;;;;;;;;;;;;;;6.52;69.26;102040.54;1698502;84;20541;-68
2021/11/15 09:40:13;;;;;;;;;;;;;;;6.57;69.17;102048.31;1698644;84;20189;-68
2021/11/15 09:42:42;;;;;;;;;;;;;;;6.62;69.08;102058.31;1698638;84;20296;-70
2021/11/15 09:45:11;;;;;;;;;;;;;;;6.62;68.56;102048.28;1698734;84;20550;-67
2021/11/15 09:47:39;;;;;;;;;;;;;;;6.56;68.76;102050.17;1698794;84;20240;-71
2021/11/15 09:50:12;;;;;;;;;;;;;;;6.56;68.99;102052.90;1698994;84;20240;-69
2021/11/15 09:52:40;;;;;;;;;;;;;;;6.59;69.14;102049.91;1698856;84;20519;-68
2021/11/15 09:55:09;;;;;;;;;;;;;;;6.60;69.02;102050.77;1698704;84;20555;-69
2021/11/15 09:57:41;;;;;;;;;;;;;;;6.57;68.81;102054.63;1698732;84;20711;-69
2021/11/15 10:00:20;;;;;;;;;;;;;;;6.58;68.94;102056.35;1698611;84;20245;-73
2021/11/15 10:02:49;;;;;;;;;;;;;;;6.56;68.92;102060.20;1698796;84;20189;-69
2021/11/15 10:05:18;;;;;;;;;;;;;;;6.56;69.08;102061.06;1698823;84;20193;-70
2021/11/15 10:07:49;;;;;;;;;;;;;;;6.59;69.08;102059.45;1698615;84;20257;-72
2021/11/15 10:10:41;;;;;;;;;;;;;;;6.64;69.11;102063.13;1698637;84;20236;-70
2021/11/15 10:13:30;;;;;;;;;;;;;;;6.67;68.78;102069.18;1698613;84;20257;-72
2021/11/15 10:16:08;;;;;;;;;;;;;;;6.67;68.78;102077.36;1698661;84;20213;-72
2021/11/15 10:18:46;;;;;;;;;;;;;;;6.68;68.66;102078.22;1698642;84;20216;-68
2021/11/15 10:21:20;;;;;;;;;;;;;;;6.73;68.59;102073.73;1698501;84;20261;-72
2021/11/15 10:24:01;;;;;;;;;;;;;;;6.74;68.41;102082.27;1698713;84;20557;-69
2021/11/15 10:26:55;;;;;;;;;;;;;;;6.75;68.27;102075.83;1698449;83;20326;-70
2021/11/15 10:29:35;;;;;;;;;;;;;;;6.73;68.12;102090.95;1697918;84;20181;-71
2021/11/15 10:32:15;;;;;;;;;;;;;;;6.68;68.08;102087.25;1698382;84;20205;-70
2021/11/15 10:34:45;;;;;;;;;;;;;;;6.67;68.12;102096.42;1698449;84;20182;-69
2021/11/15 10:37:28;;;;;;;;;;;;;;;6.66;67.99;102101.50;1698468;84;20179;-70
2021/11/15 10:40:06;;;;;;;;;;;;;;;6.65;67.70;102109.31;1698384;84;20170;-70
2021/11/15 10:42:36;;;;;;;;;;;;;;;6.63;67.60;102122.20;1698498;84;20512;-69
2021/11/15 10:45:07;;;;;;;;;;;;;;;6.61;67.31;102121.46;1698462;84;20206;-71
2021/11/15 10:47:51;;;;;;;;;;;;;;;6.58;67.21;102115.41;1698327;84;20185;-69
2021/11/15 10:50:44;;;;;;;;;;;;;;;6.52;66.92;102127.69;1733849;83;20187;-69
2021/11/15 10:53:10;;;;;;;;;;;;;;;6.43;66.99;102127.06;1726946;83;20270;-70
2021/11/15 10:55:46;;;;;;;;;;;;;;;6.37;68.50;102158.89;1707796;83;20506;-69
2021/11/15 10:58:19;;;;;;;;;;;;;;;6.29;67.90;102154.58;1714943;83;20176;-69
2021/11/15 11:00:55;;;;;;;;;;;;;;;6.25;67.87;102161.27;1732174;83;20295;-68
2021/11/15 11:03:22;;;;;;;;;;;;;;;6.13;67.72;102163.14;1732540;81;20450;-67
2021/11/15 11:05:52;;;;;;;;;;;;;;;5.97;67.75;102166.75;1702662;83;20177;-67
2021/11/15 11:08:26;;;;;;;;;;;;;;;5.84;68.11;102162.73;1703829;84;20165;-68
2021/11/15 11:11:06;;;;;;;;;;;;;;;5.75;68.37;102160.75;1702740;84;20174;-67
2021/11/15 11:13:53;;;;;;;;;;;;;;;5.66;68.71;102164.20;1696915;85;20206;-68
2021/11/15 11:16:39;;;;;;;;;;;;;;;5.61;69.02;102171.38;1732245;83;20274;-68
2021/11/15 11:19:17;;;;;;;;;;;;;;;5.53;68.99;102168.40;1720951;83;20251;-66
2021/11/15 11:22:08;;;;;;;;;;;;;;;5.38;69.36;102165.05;1732486;83;20587;-63
2021/11/15 11:26:54;;;;;;;;;;;;;;;5.26;70.10;102167.36;1732751;82;20238;-66
2021/11/15 11:29:26;;;;;;;;;;;;;;;5.25;70.22;102171.56;1727460;83;20238;-65
2021/11/15 11:31:58;;;;;;;;;;;;;;;5.21;70.49;102164.64;1718073;82;20160;-68
2021/11/15 11:34:29;;;;;;;;;;;;;;;5.14;70.55;102167.42;1697074;84;20250;-70
2021/11/15 11:36:59;;;;;;;;;;;;;;;5.07;71.06;102165.67;1701531;84;20209;-64
2021/11/15 11:39:28;;;;;;;;;;;;;;;5.05;71.25;102167.16;1701607;84;20859;-66
2021/11/15 11:41:59;;;;;;;;;;;;;;;5.05;71.53;102171.72;1694817;85;20205;-64
2021/11/15 11:44:28;;;;;;;;;;;;;;;5.01;71.39;102170.23;1694600;85;20230;-66
2021/11/15 11:47:00;;;;;;;;;;;;;;;4.94;71.53;102169.83;1694551;85;20558;-66
2021/11/15 11:49:30;;;;;;;;;;;;;;;4.86;71.57;102175.48;1697076;83;20194;-67
2021/11/15 11:52:01;;;;;;;;;;;;;;;4.84;71.89;102169.30;1719617;83;20201;-70
2021/11/15 11:54:32;;;;;;;;;;;;;;;4.84;71.83;102174.73;1699322;84;20464;-65
2021/11/15 11:57:05;;;;;;;;;;;;;;;4.81;71.76;102180.40;1720681;83;20224;-66
2021/11/15 11:59:36;;;;;;;;;;;;;;;4.76;71.68;102182.11;1726404;83;20473;-65
2021/11/15 12:02:08;;;;;;;;;;;;;;;4.67;71.93;102178.23;1727649;83;20275;-67
2021/11/15 12:04:57;;;;;;;;;;;;;;;4.66;72.21;102177.86;1704678;83;20355;-66
2021/11/15 12:07:34;;;;;;;;;;;;;;;4.69;72.58;102183.06;1676302;83;20212;-67
2021/11/15 12:10:14;;;;;;;;;;;;;;;4.74;72.60;102181.36;1728079;83;20465;-68
2021/11/15 12:12:55;;;;;;;;;;;;;;;4.76;72.64;102184.82;1711959;83;20224;-67
2021/11/15 12:15:52;;;;;;;;;;;;;;;4.81;72.70;102181.75;1710709;83;20472;-66
2021/11/15 12:18:26;;;;;;;;;;;;;;;4.80;72.25;102181.38;1702419;83;20500;-68
2021/11/15 12:21:14;;;;;;;;;;;;;;;4.75;72.28;102189.38;1728194;83;20180;-67
2021/11/15 12:23:52;;;;;;;;;;;;;;;4.75;72.26;102188.52;1706450;83;20158;-67
2021/11/15 12:26:25;;;;;;;;;;;;;;;4.69;71.95;102187.14;1697610;84;20270;-68
2021/11/15 12:28:59;;;;;;;;;;;;;;;4.60;71.79;102200.05;1699156;84;20154;-65
2021/11/15 12:31:40;;;;;;;;;;;;;;;4.47;71.71;102195.13;1699050;84;20543;-66
2021/11/15 12:34:09;;;;;;;;;;;;;;;4.26;72.10;102203.50;1729426;82;20218;-67
2021/11/15 12:36:40;;;;;;;;;;;;;;;4.24;72.80;102206.81;1731440;82;20153;-66
2021/11/15 12:39:11;;;;;;;;;;;;;;;4.26;73.17;102203.02;1729591;82;20167;-67
2021/11/15 12:41:42;;;;;;;;;;;;;;;4.33;72.81;102215.14;1740583;82;20190;-66
2021/11/15 12:44:33;;;;;;;;;;;;;;;4.35;72.61;102210.97;1727206;82;20207;-68
2021/11/15 12:47:04;;;;;;;;;;;;;;;4.38;72.49;102221.10;1727893;83;20226;-67
2021/11/15 12:49:51;;;;;;;;;;;;;;;4.32;71.99;102228.34;1727990;83;20164;-66
2021/11/15 12:52:31;;;;;;;;;;;;;;;4.29;71.79;102223.63;1728082;83;20160;-69
2021/11/15 12:55:11;;;;;;;;;;;;;;;4.24;71.67;102231.23;1728151;83;20202;-66
2021/11/15 12:57:48;;;;;;;;;;;;;;;4.18;71.50;102233.04;1726030;82;20195;-65
2021/11/15 13:00:32;;;;;;;;;;;;;;;4.13;71.84;102238.80;1699652;83;20245;-64
2021/11/15 13:03:07;;;;;;;;;;;;;;;4.08;71.95;102236.91;1726693;83;20211;-65
2021/11/15 13:05:38;;;;;;;;;;;;;;;4.06;72.01;102239.73;1728156;83;20203;-64
2021/11/15 13:08:09;;;;;;;;;;;;;;;4.05;72.28;102247.49;1710521;83;20510;-66
2021/11/15 13:10:41;;;;;;;;;;;;;;;3.99;71.87;102239.80;1719302;83;20255;-65